Time;durP1;ratioP1;P1;durP2;ratioP2;P2;SDS_P1;SDS_P2;PMS_P1;PMS_P2;Temp;Humidity;BMP_temperature;BMP_pressure;BME280_temperature;BME280_humidity;BME280_pressure;Samples;Min_cycle;Max_cycle;Signal;HPM_P1;HPM_P2
2022/12/11 00:00:00;;;;;;;17.30;15.67;;;3.10;99.90;;;;;;10545745;28;20298;-82
2022/12/11 00:05:09;;;;;;;20.97;18.77;;;3.00;99.90;;;;;;10526685;28;20220;-81
2022/12/11 00:10:18;;;;;;;21.57;19.37;;;3.00;99.90;;;;;;10508184;28;20216;-82
2022/12/11 00:15:20;;;;;;;19.70;17.80;;;2.90;99.90;;;;;;10520304;28;20224;-82
2022/12/11 00:20:22;;;;;;;20.37;18.27;;;2.90;99.90;;;;;;10518258;28;20188;-81
2022/12/11 00:25:26;;;;;;;20.00;18.00;;;2.80;99.90;;;;;;10509303;28;20239;-83
2022/12/11 00:30:28;;;;;;;18.07;16.40;;;2.90;99.90;;;;;;10507497;28;20722;-81
2022/12/11 00:35:30;;;;;;;18.60;16.80;;;2.90;99.90;;;;;;10523862;28;20231;-81
2022/12/11 00:40:35;;;;;;;18.57;16.77;;;2.90;99.90;;;;;;10522366;28;20229;-82
2022/12/11 00:45:37;;;;;;;19.50;17.60;;;3.00;99.90;;;;;;10530625;28;20240;-80
2022/12/11 00:50:40;;;;;;;19.93;17.93;;;3.10;99.90;;;;;;10524324;28;20410;-82
2022/12/11 00:55:44;;;;;;;18.90;17.10;;;3.10;99.90;;;;;;10510321;28;20636;-82
2022/12/11 01:00:47;;;;;;;18.50;16.70;;;3.20;99.90;;;;;;10506189;28;20193;-82
2022/12/11 01:05:53;;;;;;;19.13;17.23;;;3.30;99.90;;;;;;10525700;28;20216;-82
2022/12/11 01:11:03;;;;;;;20.90;18.90;;;3.40;99.90;;;;;;10524982;28;20283;-82
2022/12/11 01:16:08;;;;;;;21.93;19.73;;;3.50;99.90;;;;;;10505307;28;20266;-81
2022/12/11 01:21:12;;;;;;;23.13;20.90;;;3.60;99.90;;;;;;10517994;28;20205;-81
2022/12/11 01:26:16;;;;;;;22.90;19.20;;;3.70;99.90;;;;;;10509158;28;20243;-82
2022/12/11 01:31:20;;;;;;;20.77;18.60;;;3.70;99.90;;;;;;10521968;28;20195;-82
2022/12/11 01:36:23;;;;;;;20.97;18.97;;;3.70;99.90;;;;;;10520772;28;20347;-80
2022/12/11 01:41:26;;;;;;;22.23;20.03;;;3.80;99.90;;;;;;10517532;28;20220;-82
2022/12/11 01:46:30;;;;;;;20.87;18.97;;;3.80;99.90;;;;;;10521094;28;20249;-83
2022/12/11 01:51:35;;;;;;;23.73;21.43;;;3.70;99.90;;;;;;10520930;28;20247;-83
2022/12/11 01:56:41;;;;;;;23.33;21.03;;;3.70;99.90;;;;;;10533634;28;20311;-82
2022/12/11 02:01:49;;;;;;;23.83;21.47;;;3.80;99.90;;;;;;10519779;28;20307;-82
2022/12/11 02:06:53;;;;;;;22.93;20.53;;;3.80;99.90;;;;;;10525423;28;20180;-81
2022/12/11 02:12:03;;;;;;;20.63;18.63;;;3.90;99.90;;;;;;10552215;28;20633;-82
2022/12/11 02:17:10;;;;;;;20.83;18.73;;;4.00;99.90;;;;;;10590550;28;20282;-81
2022/12/11 02:22:21;;;;;;;19.97;18.00;;;4.10;99.90;;;;;;10573119;28;20219;-82
2022/12/11 02:27:32;;;;;;;17.77;16.10;;;4.10;99.90;;;;;;10552604;28;20206;-81
2022/12/11 02:32:40;;;;;;;17.33;14.33;;;4.10;99.60;;;;;;10585343;28;20290;-82
2022/12/11 02:37:45;;;;;;;16.70;15.10;;;4.10;99.70;;;;;;10598986;28;20266;-81
2022/12/11 02:42:48;;;;;;;15.70;14.20;;;4.10;99.90;;;;;;10596844;28;20268;-82
2022/12/11 02:47:52;;;;;;;12.87;11.67;;;4.10;99.90;;;;;;10589577;28;20248;-82
2022/12/11 02:52:57;;;;;;;14.53;13.03;;;4.20;99.90;;;;;;10572153;28;20273;-82
2022/12/11 02:58:04;;;;;;;17.17;15.57;;;4.30;99.90;;;;;;10585505;28;20258;-82
2022/12/11 03:03:07;;;;;;;19.07;17.27;;;4.30;99.90;;;;;;10545384;28;20642;-83
2022/12/11 03:08:10;;;;;;;16.93;15.33;;;4.40;99.90;;;;;;10568026;28;20264;-83
2022/12/11 03:13:21;;;;;;;17.20;15.60;;;4.40;99.90;;;;;;10582523;28;20297;-82
2022/12/11 03:18:30;;;;;;;18.97;17.17;;;4.40;99.90;;;;;;10588205;28;20649;-82
2022/12/11 03:23:37;;;;;;;17.80;16.10;;;4.50;99.90;;;;;;10589344;28;20219;-80
2022/12/11 03:28:47;;;;;;;17.37;15.70;;;4.50;99.90;;;;;;10581519;28;20236;-82
2022/12/11 03:33:53;;;;;;;19.33;17.53;;;4.60;99.90;;;;;;10587437;28;20329;-81
2022/12/11 03:38:59;;;;;;;18.60;16.60;;;4.60;99.90;;;;;;10585984;28;20622;-82
2022/12/11 03:44:02;;;;;;;17.87;16.27;;;4.60;99.90;;;;;;10568029;28;20222;-81
2022/12/11 03:49:08;;;;;;;17.77;16.07;;;4.60;99.90;;;;;;10585372;28;20197;-81
2022/12/11 03:54:11;;;;;;;21.20;19.10;;;4.60;99.70;;;;;;10569129;28;20314;-83
2022/12/11 03:59:13;;;;;;;21.07;19.07;;;4.60;99.90;;;;;;10586340;28;20199;-82
2022/12/11 04:04:17;;;;;;;14.07;12.67;;;4.50;99.90;;;;;;10597639;28;20215;-82
2022/12/11 04:09:19;;;;;;;15.63;14.17;;;4.50;99.90;;;;;;10589713;28;20223;-82
2022/12/11 04:25:02;;;;;;;16.57;14.97;;;4.40;99.90;;;;;;10585489;28;20223;-80
2022/12/11 04:30:05;;;;;;;15.77;14.27;;;4.40;99.40;;;;;;10582184;28;20195;-83
2022/12/11 04:35:10;;;;;;;16.00;14.50;;;4.30;98.20;;;;;;10571631;28;20250;-82
2022/12/11 04:40:15;;;;;;;15.83;14.33;;;4.20;98.70;;;;;;10587491;28;20651;-82
2022/12/11 04:45:17;;;;;;;15.40;14.00;;;4.10;98.40;;;;;;10571428;28;20211;-81
2022/12/11 04:50:21;;;;;;;15.97;14.40;;;4.10;99.60;;;;;;10592508;28;20203;-82
2022/12/11 04:55:23;;;;;;;15.27;13.87;;;4.00;98.60;;;;;;10587435;28;20215;-82
2022/12/11 05:00:26;;;;;;;16.17;14.60;;;4.00;98.60;;;;;;10578535;28;20199;-83
2022/12/11 05:05:29;;;;;;;16.80;15.10;;;4.00;97.70;;;;;;10569859;28;20217;-82
2022/12/11 05:10:31;;;;;;;16.23;14.70;;;3.90;98.10;;;;;;10584754;28;20195;-82
2022/12/11 05:15:33;;;;;;;15.77;14.33;;;3.80;98.30;;;;;;10574786;28;20219;-80
2022/12/11 05:20:37;;;;;;;15.03;13.63;;;3.80;99.30;;;;;;10574212;28;20200;-81
2022/12/11 05:25:39;;;;;;;15.53;14.03;;;3.80;98.10;;;;;;10567544;28;20222;-82
2022/12/11 05:30:41;;;;;;;16.27;14.67;;;3.80;98.90;;;;;;10569694;28;20207;-82
2022/12/11 05:35:49;;;;;;;17.30;15.50;;;3.90;99.00;;;;;;10583234;28;20342;-82
2022/12/11 05:40:56;;;;;;;16.03;14.00;;;3.90;98.50;;;;;;10567779;28;20611;-83
2022/12/11 05:46:07;;;;;;;16.13;14.63;;;3.80;98.40;;;;;;10586505;28;20211;-83
2022/12/11 05:51:11;;;;;;;16.93;15.23;;;3.70;98.50;;;;;;10587471;28;20290;-81
2022/12/11 05:56:16;;;;;;;17.67;15.90;;;3.60;99.20;;;;;;10550354;28;20243;-80
2022/12/11 06:01:20;;;;;;;18.33;16.63;;;3.70;99.80;;;;;;10562876;28;20286;-82
2022/12/11 06:06:25;;;;;;;17.57;15.77;;;3.70;99.80;;;;;;10580573;28;20722;-83
2022/12/11 06:11:28;;;;;;;17.67;15.87;;;3.60;99.90;;;;;;10581199;28;20314;-83
2022/12/11 06:16:31;;;;;;;18.10;16.23;;;3.70;99.90;;;;;;10580262;28;20240;-83
2022/12/11 06:21:34;;;;;;;17.47;15.67;;;3.70;99.50;;;;;;10570128;28;20218;-80
2022/12/11 06:26:36;;;;;;;16.80;15.10;;;3.60;99.20;;;;;;10564061;28;20644;-81
2022/12/11 06:31:38;;;;;;;17.50;15.70;;;3.50;99.20;;;;;;10548098;28;20243;-81
2022/12/11 06:36:42;;;;;;;17.13;15.37;;;3.40;98.40;;;;;;10563945;28;20256;-82
2022/12/11 06:41:44;;;;;;;16.00;14.50;;;3.20;98.50;;;;;;10583812;28;20240;-83
2022/12/11 06:46:46;;;;;;;17.43;15.70;;;3.00;98.30;;;;;;10580187;28;20278;-82
2022/12/11 06:51:49;;;;;;;17.80;16.10;;;2.90;99.50;;;;;;10590967;28;20731;-80
2022/12/11 06:56:51;;;;;;;18.30;16.50;;;2.80;99.80;;;;;;10570340;28;20223;-81
2022/12/11 07:01:53;;;;;;;17.97;16.17;;;2.80;98.60;;;;;;10570817;28;20243;-80
2022/12/11 07:06:57;;;;;;;18.20;16.03;;;2.70;97.70;;;;;;10590434;28;20214;-82
2022/12/11 07:11:59;;;;;;;19.23;17.23;;;2.60;98.30;;;;;;10592764;28;20326;-82
2022/12/11 07:17:01;;;;;;;19.70;17.70;;;2.50;98.90;;;;;;10596497;28;20241;-81
2022/12/11 07:22:04;;;;;;;19.60;17.57;;;2.50;99.90;;;;;;10598139;28;20207;-81
2022/12/11 07:27:07;;;;;;;17.50;15.80;;;2.50;99.50;;;;;;10587100;28;20195;-82
2022/12/11 07:32:09;;;;;;;20.17;18.13;;;2.60;99.90;;;;;;10591145;28;20264;-80
2022/12/11 07:37:12;;;;;;;19.87;17.83;;;2.70;99.90;;;;;;10587184;28;20310;-81
2022/12/11 07:42:14;;;;;;;20.43;18.40;;;2.80;99.90;;;;;;10606767;27;20219;-81
2022/12/11 07:47:16;;;;;;;21.33;19.23;;;2.90;99.90;;;;;;10586952;28;20215;-80
2022/12/11 07:52:20;;;;;;;21.77;19.60;;;3.00;99.90;;;;;;10586690;28;20302;-82
2022/12/11 07:57:22;;;;;;;21.03;18.93;;;3.10;99.90;;;;;;10583503;28;20701;-80
2022/12/11 08:02:24;;;;;;;20.77;18.63;;;3.30;99.90;;;;;;10587152;28;20222;-80
2022/12/11 08:07:27;;;;;;;25.70;22.90;;;3.30;99.90;;;;;;10587490;28;20215;-80
2022/12/11 08:12:32;;;;;;;22.03;19.83;;;3.40;99.90;;;;;;10585954;28;20223;-82
2022/12/11 08:17:34;;;;;;;22.43;20.13;;;3.60;99.70;;;;;;10586991;28;20246;-83
2022/12/11 08:22:38;;;;;;;22.47;20.10;;;3.60;99.90;;;;;;10589063;28;20298;-83
2022/12/11 08:27:40;;;;;;;21.93;19.63;;;3.70;99.90;;;;;;10601338;27;20568;-83
2022/12/11 08:32:42;;;;;;;20.77;18.57;;;3.90;99.90;;;;;;10593487;28;20302;-81
2022/12/11 08:37:46;;;;;;;21.33;19.30;;;4.00;99.90;;;;;;10591765;28;20571;-82
2022/12/11 08:42:48;;;;;;;23.03;18.10;;;4.10;99.90;;;;;;10589409;28;20215;-82
2022/12/11 08:47:52;;;;;;;20.80;18.60;;;4.20;99.30;;;;;;10589720;28;20694;-82
2022/12/11 08:52:56;;;;;;;23.07;18.73;;;4.20;99.10;;;;;;10587612;28;20215;-82
2022/12/11 08:57:58;;;;;;;22.20;19.87;;;4.20;99.60;;;;;;10575651;28;20554;-82
2022/12/11 09:03:00;;;;;;;20.73;18.73;;;4.20;99.90;;;;;;10588542;28;20207;-82
2022/12/11 09:08:03;;;;;;;19.47;17.47;;;4.20;99.90;;;;;;10588973;28;20202;-80
2022/12/11 09:13:05;;;;;;;21.00;18.70;;;4.30;99.90;;;;;;10586683;27;20268;-80
2022/12/11 09:18:08;;;;;;;22.83;20.33;;;4.30;99.90;;;;;;10558722;28;20219;-82
2022/12/11 09:23:11;;;;;;;20.90;18.80;;;4.30;99.90;;;;;;10522963;28;20214;-82
2022/12/11 09:28:15;;;;;;;20.97;18.80;;;4.40;99.90;;;;;;10524969;28;20204;-82
2022/12/11 09:33:17;;;;;;;21.80;18.47;;;4.50;99.90;;;;;;10519116;28;20247;-82
2022/12/11 09:38:20;;;;;;;20.47;18.20;;;4.50;99.90;;;;;;10520281;28;20609;-82
2022/12/11 09:43:34;;;;;;;20.33;18.00;;;4.50;99.90;;;;;;10529223;28;20215;-80
2022/12/11 09:48:38;;;;;;;18.63;16.77;;;4.50;99.90;;;;;;10526406;28;20275;-80
2022/12/11 09:53:41;;;;;;;19.43;17.50;;;4.60;99.70;;;;;;10524859;28;20753;-83
2022/12/11 09:58:56;;;;;;;19.63;17.63;;;4.60;99.90;;;;;;10522183;28;20215;-81
2022/12/11 10:04:14;;;;;;;18.87;17.07;;;4.70;99.50;;;;;;10524195;28;20216;-81
2022/12/11 10:09:26;;;;;;;18.07;16.17;;;4.80;99.90;;;;;;10526487;28;20180;-82
2022/12/11 10:14:39;;;;;;;17.70;16.00;;;4.90;99.90;;;;;;10521343;28;20740;-82
2022/12/11 10:19:42;;;;;;;20.67;18.57;;;5.00;97.70;;;;;;10529075;28;20281;-80
2022/12/11 10:24:51;;;;;;;18.83;16.93;;;5.00;98.20;;;;;;10509983;28;20216;-82
2022/12/11 10:30:01;;;;;;;18.57;16.67;;;5.00;97.80;;;;;;10535900;28;20191;-80
2022/12/11 10:35:06;;;;;;;16.40;14.80;;;5.00;98.00;;;;;;10518610;28;20216;-82
2022/12/11 10:40:12;;;;;;;17.60;15.90;;;5.00;97.80;;;;;;10530231;28;20216;-82
2022/12/11 10:45:16;;;;;;;22.33;17.17;;;5.10;99.00;;;;;;10505826;28;20259;-82
2022/12/11 10:50:24;;;;;;;21.93;19.60;;;5.20;98.70;;;;;;10521875;28;20748;-81
2022/12/11 10:55:30;;;;;;;22.23;19.90;;;5.30;99.10;;;;;;10553422;28;20293;-80
2022/12/11 11:00:36;;;;;;;21.20;19.00;;;5.40;99.60;;;;;;10532166;28;20694;-80
2022/12/11 11:05:39;;;;;;;23.10;20.60;;;5.40;99.40;;;;;;10556339;28;20559;-82
2022/12/11 11:10:53;;;;;;;21.20;19.00;;;5.50;99.80;;;;;;10531743;28;20200;-80
2022/12/11 11:16:00;;;;;;;20.97;18.33;;;5.50;98.90;;;;;;10558339;28;20371;-81
2022/12/11 11:21:03;;;;;;;26.97;24.17;;;5.50;98.50;;;;;;10545464;28;20562;-80
2022/12/11 11:26:08;;;;;;;22.43;20.03;;;5.50;99.50;;;;;;10533073;28;20215;-82
2022/12/11 11:31:13;;;;;;;24.17;21.30;;;5.50;99.00;;;;;;10572343;28;20200;-81
2022/12/11 11:36:22;;;;;;;22.90;20.60;;;5.60;99.90;;;;;;10560321;28;20250;-83
2022/12/11 11:41:31;;;;;;;22.77;20.40;;;5.60;99.80;;;;;;10545596;28;20294;-80
2022/12/11 11:46:37;;;;;;;23.23;20.47;;;5.60;99.90;;;;;;10555893;28;20639;-82
2022/12/11 11:51:44;;;;;;;23.33;21.00;;;5.70;99.90;;;;;;10550338;28;20224;-82
2022/12/11 11:56:52;;;;;;;21.27;19.17;;;5.70;99.40;;;;;;10557454;28;20312;-82
2022/12/11 12:01:56;;;;;;;22.43;19.60;;;5.70;97.90;;;;;;10558062;28;20220;-82
2022/12/11 12:07:17;;;;;;;24.20;21.07;;;5.70;98.00;;;;;;10558063;28;20196;-82
2022/12/11 12:12:32;;;;;;;21.93;19.60;;;5.60;98.30;;;;;;10548221;28;20235;-82
2022/12/11 12:17:47;;;;;;;21.90;19.77;;;5.50;98.70;;;;;;10574759;28;20249;-82
2022/12/11 12:23:00;;;;;;;22.37;20.17;;;5.60;98.90;;;;;;10551915;28;20511;-82
2022/12/11 12:28:18;;;;;;;21.00;18.80;;;5.60;99.40;;;;;;10555095;28;20231;-82
2022/12/11 12:33:37;;;;;;;23.30;20.80;;;5.50;99.10;;;;;;10551091;28;20227;-82
2022/12/11 12:38:52;;;;;;;23.90;20.17;;;5.50;99.90;;;;;;10560459;28;20227;-80
2022/12/11 12:44:13;;;;;;;24.73;22.23;;;5.40;99.90;;;;;;10537114;28;20227;-82
2022/12/11 12:49:19;;;;;;;21.80;19.70;;;5.40;99.90;;;;;;10554193;28;20183;-81
2022/12/11 12:54:22;;;;;;;24.43;21.60;;;5.40;99.90;;;;;;10548286;28;20226;-82
2022/12/11 12:59:27;;;;;;;23.83;21.30;;;5.40;99.90;;;;;;10555515;28;20223;-82
2022/12/11 13:04:39;;;;;;;25.77;23.03;;;5.40;99.90;;;;;;10567352;28;20214;-83
2022/12/11 13:09:41;;;;;;;25.20;22.60;;;5.30;99.90;;;;;;10561366;28;20642;-82
2022/12/11 13:14:55;;;;;;;24.40;21.97;;;5.00;99.50;;;;;;10560433;22;20318;-79
2022/12/11 13:20:16;;;;;;;25.80;23.00;;;4.80;99.90;;;;;;10480057;28;20220;-80
2022/12/11 13:25:26;;;;;;;22.10;19.70;;;4.70;99.90;;;;;;10460780;28;20324;-81
2022/12/11 13:30:29;;;;;;;23.77;21.10;;;4.70;99.90;;;;;;10465706;28;20216;-80
2022/12/11 13:35:33;;;;;;;25.10;22.40;;;4.60;99.90;;;;;;10461494;28;20280;-81
2022/12/11 13:40:39;;;;;;;25.03;22.50;;;4.60;99.90;;;;;;10458276;28;20205;-81
2022/12/11 13:45:49;;;;;;;27.23;24.37;;;4.60;99.90;;;;;;10461385;28;20243;-82
2022/12/11 13:50:52;;;;;;;25.40;22.80;;;4.60;99.90;;;;;;10455976;28;20300;-81
2022/12/11 13:55:59;;;;;;;24.07;21.60;;;4.60;99.90;;;;;;10459383;28;20221;-80
2022/12/11 14:01:09;;;;;;;22.67;20.43;;;4.60;99.90;;;;;;10453963;28;20213;-81
2022/12/11 14:06:13;;;;;;;26.70;23.80;;;4.60;99.90;;;;;;10466912;28;20228;-80
2022/12/11 14:11:22;;;;;;;26.70;23.80;;;4.50;99.90;;;;;;10461561;28;20284;-80
2022/12/11 14:16:28;;;;;;;28.07;25.03;;;4.50;99.90;;;;;;10457467;28;20555;-80
2022/12/11 14:21:31;;;;;;;27.73;24.00;;;4.50;99.90;;;;;;10454540;28;20568;-79
2022/12/11 14:26:36;;;;;;;27.70;24.53;;;4.50;99.90;;;;;;10461247;28;20217;-81
2022/12/11 14:31:42;;;;;;;28.07;24.83;;;4.40;99.90;;;;;;10465970;28;20621;-81
2022/12/11 14:36:46;;;;;;;27.17;23.90;;;4.40;99.90;;;;;;10456898;28;20217;-81
2022/12/11 14:41:53;;;;;;;29.20;25.30;;;4.30;99.90;;;;;;10467665;28;20224;-79
2022/12/11 14:47:00;;;;;;;31.13;26.77;;;4.30;99.90;;;;;;10448151;28;20395;-81
2022/12/11 14:52:03;;;;;;;28.83;25.73;;;4.30;99.90;;;;;;10452566;28;20260;-80
2022/12/11 14:57:08;;;;;;;28.60;24.93;;;4.30;99.90;;;;;;10470562;28;20222;-82
2022/12/11 15:02:25;;;;;;;29.13;24.53;;;4.20;99.60;;;;;;10477418;28;20252;-79
2022/12/11 15:07:28;;;;;;;27.67;24.77;;;4.20;99.90;;;;;;10504869;28;20204;-81
2022/12/11 15:12:31;;;;;;;30.27;23.97;;;4.20;99.90;;;;;;10481813;28;20232;-80
2022/12/11 15:17:36;;;;;;;27.50;24.37;;;4.10;99.90;;;;;;10502007;28;20248;-81
2022/12/11 15:22:44;;;;;;;25.57;22.80;;;4.10;99.90;;;;;;10469043;28;20244;-80
2022/12/11 15:27:51;;;;;;;24.60;21.90;;;4.10;99.90;;;;;;10475029;28;20196;-79
2022/12/11 15:33:04;;;;;;;21.13;17.90;;;4.10;99.90;;;;;;10451661;28;20225;-80
2022/12/11 15:38:06;;;;;;;25.43;22.70;;;4.10;99.90;;;;;;10480707;28;20223;-81
2022/12/11 15:43:09;;;;;;;24.50;21.70;;;4.10;99.90;;;;;;10460545;28;20280;-81
2022/12/11 15:48:12;;;;;;;28.73;24.50;;;4.10;99.90;;;;;;10451192;28;20197;-81
2022/12/11 15:53:14;;;;;;;26.10;23.40;;;4.10;99.90;;;;;;10466430;28;20225;-80
2022/12/11 15:58:20;;;;;;;27.90;23.80;;;4.20;99.90;;;;;;10441645;28;20592;-79
2022/12/11 16:03:24;;;;;;;31.97;26.20;;;4.20;99.90;;;;;;10456855;28;20225;-80
2022/12/11 16:08:26;;;;;;;28.77;24.77;;;4.30;99.90;;;;;;10464329;28;20224;-79
2022/12/11 16:13:28;;;;;;;28.70;25.23;;;4.40;99.90;;;;;;10480550;28;20304;-82
2022/12/11 16:18:32;;;;;;;30.17;25.97;;;4.50;99.90;;;;;;10483213;28;20246;-81
2022/12/11 16:23:34;;;;;;;30.80;26.97;;;4.50;99.90;;;;;;10479694;28;20225;-80
2022/12/11 16:28:36;;;;;;;30.53;26.80;;;4.60;99.90;;;;;;10474508;28;20292;-81
2022/12/11 16:33:40;;;;;;;34.37;28.40;;;4.60;99.90;;;;;;10480189;28;20224;-81
2022/12/11 16:38:44;;;;;;;35.53;29.00;;;4.50;99.90;;;;;;10480329;28;20221;-81
2022/12/11 16:43:46;;;;;;;39.67;34.77;;;4.50;99.90;;;;;;10479124;28;20217;-79
2022/12/11 16:48:55;;;;;;;39.23;32.63;;;4.40;99.90;;;;;;10448345;28;20205;-79
2022/12/11 16:53:58;;;;;;;39.80;32.47;;;4.40;99.90;;;;;;10464571;28;20225;-80
2022/12/11 16:59:04;;;;;;;39.20;31.47;;;4.30;99.90;;;;;;10430305;28;20382;-78
2022/12/11 17:04:15;;;;;;;42.07;33.50;;;4.20;99.90;;;;;;10447885;28;20311;-79
2022/12/11 17:09:18;;;;;;;39.27;32.57;;;4.10;99.90;;;;;;10467015;28;20193;-81
2022/12/11 17:14:23;;;;;;;40.83;33.23;;;4.00;99.90;;;;;;10459437;28;20686;-81
2022/12/11 17:19:27;;;;;;;68.23;42.13;;;3.90;99.90;;;;;;10499788;28;20248;-78
2022/12/11 17:24:31;;;;;;;34.20;29.57;;;3.90;99.90;;;;;;10455803;28;20221;-79
2022/12/11 17:29:33;;;;;;;39.23;34.07;;;3.80;99.90;;;;;;10458913;28;20660;-78
2022/12/11 17:34:36;;;;;;;42.10;34.37;;;3.80;99.90;;;;;;10454861;28;20581;-80
2022/12/11 17:39:39;;;;;;;42.30;34.40;;;3.80;99.90;;;;;;10503060;28;20217;-79
2022/12/11 17:50:11;;;;;;;47.50;38.70;;;3.80;99.90;;;;;;10441009;28;20197;-79
2022/12/11 17:55:18;;;;;;;41.93;33.40;;;3.80;99.90;;;;;;10496347;28;20307;-79
2022/12/11 18:00:31;;;;;;;38.37;31.40;;;3.80;99.90;;;;;;10490664;28;20209;-78
2022/12/11 18:05:40;;;;;;;39.40;32.40;;;3.80;99.90;;;;;;10457628;28;20356;-78
2022/12/11 18:10:45;;;;;;;36.97;31.63;;;3.80;99.90;;;;;;10495405;28;20198;-79
2022/12/11 18:16:21;;;;;;;39.17;33.00;;;3.90;99.90;;;;;;10464284;28;20250;-81
2022/12/11 18:21:27;;;;;;;39.47;31.50;;;4.00;99.90;;;;;;10503262;28;20627;-79
2022/12/11 18:26:29;;;;;;;37.70;31.80;;;4.00;99.90;;;;;;10463796;28;20224;-80
2022/12/11 18:31:31;;;;;;;37.30;31.27;;;4.10;99.90;;;;;;10482561;28;20665;-80
2022/12/11 18:36:35;;;;;;;35.97;31.13;;;4.10;99.90;;;;;;10458900;28;20212;-80
2022/12/11 18:41:40;;;;;;;39.43;31.63;;;4.00;99.90;;;;;;10491927;28;20640;-78
2022/12/11 18:46:43;;;;;;;37.20;30.40;;;3.90;99.90;;;;;;10419700;28;20707;-79
2022/12/11 18:51:46;;;;;;;41.00;33.03;;;3.80;99.90;;;;;;10448472;28;20208;-80
2022/12/11 18:56:48;;;;;;;44.07;34.27;;;3.80;99.90;;;;;;10429326;28;20201;-80
2022/12/11 19:01:50;;;;;;;38.77;32.10;;;3.70;99.90;;;;;;10433772;28;20197;-80
2022/12/11 19:06:53;;;;;;;41.70;34.30;;;3.60;99.90;;;;;;10450100;28;20198;-80
2022/12/11 19:11:59;;;;;;;40.40;33.13;;;3.60;99.90;;;;;;10420463;28;20255;-79
2022/12/11 19:17:02;;;;;;;31.70;24.90;;;3.50;99.90;;;;;;10442864;28;20271;-82
2022/12/11 19:22:05;;;;;;;41.77;34.33;;;3.40;99.90;;;;;;10498044;28;20283;-83
2022/12/11 19:27:07;;;;;;;42.07;34.70;;;3.30;99.90;;;;;;10443941;28;20205;-80
2022/12/11 19:32:12;;;;;;;40.17;33.60;;;3.20;99.90;;;;;;10435452;28;20705;-79
2022/12/11 19:37:16;;;;;;;39.80;34.40;;;3.00;99.90;;;;;;10429507;28;20221;-80
2022/12/11 19:42:18;;;;;;;38.47;31.70;;;2.90;99.90;;;;;;10444446;28;20232;-80
2022/12/11 19:47:21;;;;;;;41.93;33.97;;;2.80;99.90;;;;;;10441620;28;20256;-80
2022/12/11 19:52:25;;;;;;;42.60;34.27;;;2.70;99.90;;;;;;10451999;28;20708;-79
2022/12/11 19:57:27;;;;;;;38.40;32.77;;;2.60;99.70;;;;;;10429201;28;20213;-83
2022/12/11 20:02:29;;;;;;;42.37;34.80;;;2.30;99.90;;;;;;10450390;28;20226;-83
2022/12/11 20:07:37;;;;;;;41.03;34.70;;;2.20;99.90;;;;;;10433691;28;20205;-82
2022/12/11 20:12:39;;;;;;;51.10;40.77;;;2.20;99.90;;;;;;10446210;28;20229;-83
2022/12/11 20:18:11;;;;;;;44.37;37.00;;;2.20;99.90;;;;;;10439516;28;20595;-83
2022/12/11 20:23:29;;;;;;;45.10;37.33;;;2.30;99.90;;;;;;10438087;28;20226;-83
2022/12/11 20:28:31;;;;;;;40.80;34.30;;;2.40;99.90;;;;;;10458063;28;20224;-82
2022/12/11 20:33:33;;;;;;;46.17;38.20;;;2.50;99.90;;;;;;10450214;28;20271;-81
2022/12/11 20:38:39;;;;;;;43.63;36.27;;;2.60;99.90;;;;;;10450621;28;20676;-83
2022/12/11 20:43:41;;;;;;;48.73;38.27;;;2.70;99.90;;;;;;10440169;28;20779;-82
2022/12/11 20:48:45;;;;;;;47.40;40.40;;;2.80;99.90;;;;;;10452010;28;20224;-81
2022/12/11 20:53:56;;;;;;;43.63;36.37;;;3.00;99.90;;;;;;10430990;28;20229;-83
2022/12/11 20:58:59;;;;;;;39.27;33.77;;;3.10;99.90;;;;;;10428238;28;20281;-82
2022/12/11 21:04:01;;;;;;;38.40;33.67;;;3.20;99.90;;;;;;10451122;28;20209;-81
2022/12/11 21:09:07;;;;;;;39.00;33.70;;;3.20;99.90;;;;;;10467200;28;20201;-82
2022/12/11 21:14:10;;;;;;;38.97;34.50;;;3.30;99.90;;;;;;10492958;28;20219;-82
2022/12/11 21:19:14;;;;;;;39.70;34.90;;;3.40;99.90;;;;;;10483317;28;20656;-81
2022/12/11 21:24:20;;;;;;;39.33;35.13;;;3.50;99.90;;;;;;10492366;28;20244;-81
2022/12/11 21:29:23;;;;;;;40.23;33.60;;;3.60;99.90;;;;;;10493272;28;20563;-80
2022/12/11 21:34:25;;;;;;;37.00;32.83;;;3.70;99.90;;;;;;10491398;28;20231;-81
2022/12/11 21:39:29;;;;;;;33.30;29.70;;;3.70;99.90;;;;;;10460043;28;20220;-82
2022/12/11 21:44:31;;;;;;;34.20;28.33;;;3.80;99.90;;;;;;10484249;28;20311;-82
2022/12/11 21:49:33;;;;;;;29.23;26.17;;;3.90;99.90;;;;;;10444139;28;20202;-81
2022/12/11 21:54:41;;;;;;;30.67;26.93;;;3.90;99.90;;;;;;10463060;28;20308;-81
2022/12/11 21:59:43;;;;;;;30.80;27.50;;;3.90;99.90;;;;;;10424581;28;20263;-81
2022/12/11 22:04:46;;;;;;;33.00;28.27;;;4.00;99.90;;;;;;10458715;28;20228;-82
2022/12/11 22:09:49;;;;;;;30.37;27.20;;;4.00;99.90;;;;;;10495885;28;20204;-83
2022/12/11 22:14:52;;;;;;;31.40;27.50;;;4.10;99.90;;;;;;10461794;28;20225;-81
2022/12/11 22:19:54;;;;;;;28.80;25.70;;;4.10;99.90;;;;;;10448844;28;20216;-83
2022/12/11 22:24:57;;;;;;;30.93;27.53;;;4.20;99.80;;;;;;10469850;28;20270;-83
2022/12/11 22:29:59;;;;;;;36.60;31.27;;;4.10;99.90;;;;;;10467988;28;20192;-82
2022/12/11 22:35:02;;;;;;;34.40;30.70;;;4.20;99.90;;;;;;10491234;28;20725;-82
2022/12/11 22:40:06;;;;;;;33.80;30.13;;;4.20;99.90;;;;;;10522250;28;20305;-82
2022/12/11 22:45:10;;;;;;;38.40;31.77;;;4.20;99.90;;;;;;10504909;28;20241;-82
2022/12/11 22:50:13;;;;;;;37.70;33.60;;;4.20;99.90;;;;;;10476736;28;20230;-81
2022/12/11 22:55:16;;;;;;;33.90;28.93;;;4.10;99.80;;;;;;10506374;28;20236;-80
2022/12/11 23:00:22;;;;;;;31.43;27.10;;;4.10;99.60;;;;;;10460358;28;20592;-79
2022/12/11 23:05:24;;;;;;;34.63;30.90;;;4.10;99.60;;;;;;10475888;28;20697;-81
2022/12/11 23:10:28;;;;;;;32.70;28.03;;;4.00;99.90;;;;;;10490010;28;20288;-80
2022/12/11 23:15:31;;;;;;;34.70;30.50;;;4.00;99.70;;;;;;10445561;28;20217;-80
2022/12/11 23:20:33;;;;;;;33.37;28.80;;;4.00;99.90;;;;;;10434730;28;20227;-80
2022/12/11 23:25:37;;;;;;;30.87;27.50;;;4.00;99.90;;;;;;10436920;28;20362;-80
2022/12/11 23:30:41;;;;;;;31.63;27.40;;;4.00;98.70;;;;;;10438955;28;20672;-80
2022/12/11 23:35:44;;;;;;;32.03;27.80;;;3.90;99.20;;;;;;10450999;28;20216;-83
2022/12/11 23:40:48;;;;;;;35.50;29.20;;;3.80;99.00;;;;;;10441795;28;20308;-84
2022/12/11 23:45:51;;;;;;;34.60;28.03;;;3.80;99.40;;;;;;10440948;28;20252;-80
2022/12/11 23:50:59;;;;;;;30.90;27.20;;;3.80;99.50;;;;;;10438626;28;20197;-80
2022/12/11 23:56:05;;;;;;;34.97;27.70;;;3.70;98.90;;;;;;10443228;28;20220;-81
